Time;durP1;ratioP1;P1;durP2;ratioP2;P2;SDS_P1;SDS_P2;PMS_P1;PMS_P2;Temp;Humidity;BMP_temperature;BMP_pressure;BME280_temperature;BME280_humidity;BME280_pressure;Samples;Min_cycle;Max_cycle;Signal;HPM_P1;HPM_P2
2023/06/02 00:01:43;;;;;;;;;;;;;;;20.80;51.73;99385.19;5113866;28;19919;-79
2023/06/02 00:04:08;;;;;;;;;;;;;;;20.78;51.43;99379.28;5115190;28;19919;-79
2023/06/02 00:06:34;;;;;;;;;;;;;;;20.75;51.71;99375.22;5115095;28;19912;-79
2023/06/02 00:09:00;;;;;;;;;;;;;;;20.69;52.10;99378.88;5114970;28;19916;-77
2023/06/02 00:11:26;;;;;;;;;;;;;;;20.62;52.14;99376.38;5113961;28;19918;-78
2023/06/02 00:13:51;;;;;;;;;;;;;;;20.64;51.85;99373.47;5115781;28;19915;-78
2023/06/02 00:16:17;;;;;;;;;;;;;;;20.69;51.82;99381.56;5115121;28;19912;-76
2023/06/02 00:18:43;;;;;;;;;;;;;;;20.67;52.21;99375.66;5115063;28;20029;-78
2023/06/02 00:21:08;;;;;;;;;;;;;;;20.65;52.39;99376.94;5113738;28;19919;-78
2023/06/02 00:23:33;;;;;;;;;;;;;;;20.61;52.98;99376.63;5114896;28;19912;-78
2023/06/02 00:25:59;;;;;;;;;;;;;;;20.60;52.13;99373.13;5114953;28;19991;-77
2023/06/02 00:28:25;;;;;;;;;;;;;;;20.60;51.73;99372.31;5114506;28;19919;-78
2023/06/02 00:30:50;;;;;;;;;;;;;;;20.60;51.97;99369.66;5114615;27;20358;-78
2023/06/02 00:33:16;;;;;;;;;;;;;;;20.53;52.12;99369.81;5114489;28;19919;-78
2023/06/02 00:35:41;;;;;;;;;;;;;;;20.55;52.06;99372.25;5114945;28;19916;-78
2023/06/02 00:38:06;;;;;;;;;;;;;;;20.55;52.19;99372.25;5115143;28;19968;-78
2023/06/02 00:40:32;;;;;;;;;;;;;;;20.53;52.39;99369.00;5114698;28;20315;-79
2023/06/02 00:42:58;;;;;;;;;;;;;;;20.50;52.36;99366.81;5114552;27;19918;-78
2023/06/02 00:45:24;;;;;;;;;;;;;;;20.47;52.03;99357.41;5114395;28;19975;-79
2023/06/02 00:47:50;;;;;;;;;;;;;;;20.42;51.92;99362.69;5113181;28;19912;-78
2023/06/02 00:50:16;;;;;;;;;;;;;;;20.33;52.72;99368.69;5114052;28;19985;-75
2023/06/02 00:52:41;;;;;;;;;;;;;;;20.22;52.51;99362.38;5114133;28;19916;-79
2023/06/02 00:55:07;;;;;;;;;;;;;;;20.22;52.96;99362.38;5114189;28;19962;-77
2023/06/02 00:57:33;;;;;;;;;;;;;;;20.15;53.39;99359.84;5114211;27;19912;-77
2023/06/02 00:59:59;;;;;;;;;;;;;;;20.14;53.09;99360.09;5114032;28;19911;-77
2023/06/02 01:02:24;;;;;;;;;;;;;;;20.14;53.24;99358.22;5114123;28;19912;-77
2023/06/02 01:04:51;;;;;;;;;;;;;;;20.15;53.03;99367.09;5113979;28;19978;-77
2023/06/02 01:07:23;;;;;;;;;;;;;;;20.11;52.91;99365.94;5114216;28;19916;-79
2023/06/02 01:09:48;;;;;;;;;;;;;;;20.02;53.38;99367.38;5113823;28;19912;-78
2023/06/02 01:12:13;;;;;;;;;;;;;;;19.89;53.93;99365.84;5114584;28;19923;-77
2023/06/02 01:14:38;;;;;;;;;;;;;;;19.78;54.07;99362.19;5114427;28;19911;-78
2023/06/02 01:17:04;;;;;;;;;;;;;;;19.77;53.47;99363.22;5113534;28;19911;-79
2023/06/02 01:19:31;;;;;;;;;;;;;;;19.78;53.95;99367.53;5113730;28;20384;-78
2023/06/02 01:22:01;;;;;;;;;;;;;;;19.79;54.01;99371.84;5113541;28;20386;-79
2023/06/02 01:24:39;;;;;;;;;;;;;;;19.79;53.67;99371.03;5113483;28;20384;-78
2023/06/02 01:27:08;;;;;;;;;;;;;;;19.69;53.51;99374.34;5113320;28;19919;-78
2023/06/02 01:29:35;;;;;;;;;;;;;;;19.66;53.34;99381.00;5113386;28;19916;-77
2023/06/02 01:32:03;;;;;;;;;;;;;;;19.61;53.32;99375.53;5113737;28;19940;-77
2023/06/02 01:34:32;;;;;;;;;;;;;;;19.52;53.70;99377.00;5113641;28;19965;-78
2023/06/02 01:36:59;;;;;;;;;;;;;;;19.44;54.02;99373.84;5112446;28;19918;-78
2023/06/02 01:39:26;;;;;;;;;;;;;;;19.29;54.29;99377.84;5112193;28;19918;-78
2023/06/02 01:41:52;;;;;;;;;;;;;;;19.23;54.17;99365.41;5113303;28;20376;-78
2023/06/02 01:44:18;;;;;;;;;;;;;;;19.21;53.94;99372.06;5113480;28;19916;-78
2023/06/02 01:46:44;;;;;;;;;;;;;;;19.10;54.66;99370.22;5113187;28;19958;-78
2023/06/02 01:49:16;;;;;;;;;;;;;;;19.07;54.25;99378.72;5112981;27;19923;-78
2023/06/02 01:51:42;;;;;;;;;;;;;;;19.04;54.59;99372.00;5113033;28;19912;-78
2023/06/02 01:54:07;;;;;;;;;;;;;;;18.95;54.69;99363.53;5112501;28;19912;-77
2023/06/02 01:56:32;;;;;;;;;;;;;;;18.90;55.00;99365.28;5112676;28;19912;-78
2023/06/02 01:58:58;;;;;;;;;;;;;;;18.87;55.21;99368.44;5112778;28;20310;-77
2023/06/02 02:01:24;;;;;;;;;;;;;;;18.88;55.02;99367.38;5112825;28;20002;-78
2023/06/02 02:03:50;;;;;;;;;;;;;;;18.84;53.97;99375.06;5112864;28;19994;-78
2023/06/02 02:06:15;;;;;;;;;;;;;;;18.73;54.98;99367.88;5112765;28;20376;-78
2023/06/02 02:08:41;;;;;;;;;;;;;;;18.73;54.91;99366.00;5112719;28;19919;-78
2023/06/02 02:11:06;;;;;;;;;;;;;;;18.75;55.10;99373.81;5112717;28;19919;-78
2023/06/02 02:13:31;;;;;;;;;;;;;;;18.76;55.37;99362.06;5112581;28;20006;-78
2023/06/02 02:15:56;;;;;;;;;;;;;;;18.74;55.20;99366.81;5112004;28;19911;-77
2023/06/02 02:18:24;;;;;;;;;;;;;;;18.72;54.86;99366.25;5112783;28;19912;-78
2023/06/02 02:20:50;;;;;;;;;;;;;;;18.73;55.44;99362.53;5112548;28;19968;-78
2023/06/02 02:23:15;;;;;;;;;;;;;;;18.70;55.07;99353.13;5112638;28;19915;-77
2023/06/02 02:25:40;;;;;;;;;;;;;;;18.68;55.56;99367.78;5112430;28;19916;-77
2023/06/02 02:28:05;;;;;;;;;;;;;;;18.69;54.78;99367.53;5112301;28;19926;-78
2023/06/02 02:30:31;;;;;;;;;;;;;;;18.74;54.86;99366.81;5116056;28;19916;-76
2023/06/02 02:32:56;;;;;;;;;;;;;;;18.70;54.83;99369.16;5120876;28;20377;-77
2023/06/02 02:35:21;;;;;;;;;;;;;;;18.70;54.78;99371.03;5113130;28;19981;-77
2023/06/02 02:37:46;;;;;;;;;;;;;;;18.64;55.29;99361.25;5112555;28;19912;-78
2023/06/02 02:40:12;;;;;;;;;;;;;;;18.58;55.06;99356.78;5112722;28;19919;-78
2023/06/02 02:42:37;;;;;;;;;;;;;;;18.51;54.79;99366.78;5110861;28;19912;-78
2023/06/02 02:45:03;;;;;;;;;;;;;;;18.42;55.80;99363.66;5112086;28;20408;-78
2023/06/02 02:47:28;;;;;;;;;;;;;;;18.35;55.55;99358.44;5112053;28;19915;-78
2023/06/02 02:52:38;;;;;;;;;;;;;;;18.29;54.88;99364.72;5112265;28;19968;-78
2023/06/02 02:55:03;;;;;;;;;;;;;;;18.20;55.56;99358.09;5112121;28;19912;-77
2023/06/02 02:57:28;;;;;;;;;;;;;;;18.19;55.42;99361.00;5110902;28;19958;-77
2023/06/02 02:59:55;;;;;;;;;;;;;;;18.17;54.69;99363.91;5112031;28;19912;-77
2023/06/02 03:02:20;;;;;;;;;;;;;;;18.14;55.14;99361.69;5112087;28;19936;-77
2023/06/02 03:04:46;;;;;;;;;;;;;;;18.08;55.34;99349.25;5112295;28;19908;-78
2023/06/02 03:07:11;;;;;;;;;;;;;;;18.04;55.15;99356.09;5112110;28;20300;-79
2023/06/02 03:09:36;;;;;;;;;;;;;;;18.02;55.49;99347.50;5111990;28;19922;-79
2023/06/02 03:12:01;;;;;;;;;;;;;;;18.01;55.20;99351.22;5111998;28;20368;-79
2023/06/02 03:14:28;;;;;;;;;;;;;;;17.97;55.60;99350.06;5112301;28;19915;-78
2023/06/02 03:16:54;;;;;;;;;;;;;;;17.96;55.39;99349.25;5112100;28;19976;-78
2023/06/02 03:19:21;;;;;;;;;;;;;;;17.91;55.33;99351.78;5111999;28;19912;-79
2023/06/02 03:21:46;;;;;;;;;;;;;;;17.89;55.77;99359.22;5111982;28;19912;-79
2023/06/02 03:24:13;;;;;;;;;;;;;;;17.89;55.41;99359.22;5110558;28;19918;-76
2023/06/02 03:26:40;;;;;;;;;;;;;;;17.92;55.35;99355.28;5112085;28;19912;-78
2023/06/02 03:29:06;;;;;;;;;;;;;;;17.98;55.06;99351.69;5113909;28;19920;-77
2023/06/02 03:31:31;;;;;;;;;;;;;;;18.03;55.71;99359.81;5115828;28;19911;-78
2023/06/02 03:33:56;;;;;;;;;;;;;;;18.01;55.33;99348.56;5115896;28;19911;-78
2023/06/02 03:36:22;;;;;;;;;;;;;;;18.01;55.05;99354.72;5115714;28;19919;-79
2023/06/02 03:38:47;;;;;;;;;;;;;;;18.05;54.92;99353.19;5115844;28;19911;-79
2023/06/02 03:41:12;;;;;;;;;;;;;;;18.05;55.35;99355.06;5115863;28;19988;-78
2023/06/02 03:43:37;;;;;;;;;;;;;;;18.02;55.08;99353.66;5115305;28;19908;-78
2023/06/02 03:46:03;;;;;;;;;;;;;;;17.98;55.29;99349.81;5115332;28;19912;-78
2023/06/02 03:48:28;;;;;;;;;;;;;;;17.96;54.81;99343.09;5115226;28;19915;-78
2023/06/02 03:50:53;;;;;;;;;;;;;;;17.94;55.08;99343.31;5115283;28;20532;-76
2023/06/02 03:53:18;;;;;;;;;;;;;;;17.90;56.13;99347.50;5115327;28;19918;-78
2023/06/02 03:55:43;;;;;;;;;;;;;;;17.90;55.14;99339.47;5115241;28;19911;-78
2023/06/02 03:58:09;;;;;;;;;;;;;;;17.89;55.23;99335.19;5115345;28;20303;-77
2023/06/02 04:00:34;;;;;;;;;;;;;;;17.91;55.55;99337.63;5113728;28;19919;-78
2023/06/02 04:03:00;;;;;;;;;;;;;;;17.94;54.93;99335.31;5115061;28;19915;-77
2023/06/02 04:05:26;;;;;;;;;;;;;;;17.94;55.12;99334.50;5115118;28;19912;-78
2023/06/02 04:07:52;;;;;;;;;;;;;;;17.92;55.13;99336.59;5114987;28;19970;-78
2023/06/02 04:10:17;;;;;;;;;;;;;;;17.91;55.02;99337.63;5114947;28;19916;-78
2023/06/02 04:12:43;;;;;;;;;;;;;;;17.92;54.84;99336.59;5115159;28;19919;-78
2023/06/02 04:15:08;;;;;;;;;;;;;;;17.97;54.69;99342.03;5114173;28;19919;-78
2023/06/02 04:17:34;;;;;;;;;;;;;;;18.00;54.61;99344.25;5114389;28;20010;-78
2023/06/02 04:19:59;;;;;;;;;;;;;;;17.97;54.85;99342.03;5115188;28;19912;-77
2023/06/02 04:22:24;;;;;;;;;;;;;;;17.96;55.23;99341.22;5115093;28;20395;-77
2023/06/02 04:24:50;;;;;;;;;;;;;;;18.00;54.84;99349.59;5114710;28;19955;-78
2023/06/02 04:27:16;;;;;;;;;;;;;;;18.05;54.86;99350.53;5114508;28;19965;-77
2023/06/02 04:29:41;;;;;;;;;;;;;;;18.14;54.73;99351.00;5114256;28;20464;-79
2023/06/02 04:32:07;;;;;;;;;;;;;;;18.20;54.71;99351.94;5114329;28;19943;-79
2023/06/02 04:34:32;;;;;;;;;;;;;;;18.20;54.83;99347.41;5114200;28;19912;-78
2023/06/02 04:36:57;;;;;;;;;;;;;;;18.26;54.55;99342.97;5113116;28;19986;-79
2023/06/02 04:39:23;;;;;;;;;;;;;;;18.31;54.24;99346.59;5113966;28;19918;-78
2023/06/02 04:41:49;;;;;;;;;;;;;;;18.35;54.52;99353.09;5114427;28;19918;-78
2023/06/02 04:44:16;;;;;;;;;;;;;;;18.46;54.06;99339.94;5114290;28;19912;-79
2023/06/02 04:46:41;;;;;;;;;;;;;;;18.49;54.38;99352.84;5114248;28;19919;-79
2023/06/02 04:49:09;;;;;;;;;;;;;;;18.56;54.05;99359.69;5114033;28;19915;-79
2023/06/02 04:51:34;;;;;;;;;;;;;;;18.62;53.86;99355.34;5114058;28;20284;-79
2023/06/02 04:53:59;;;;;;;;;;;;;;;18.69;53.60;99364.84;5114009;28;19918;-79
2023/06/02 04:56:26;;;;;;;;;;;;;;;18.73;54.11;99355.31;5112697;28;19955;-78
2023/06/02 04:58:51;;;;;;;;;;;;;;;18.78;53.83;99357.28;5114149;28;19969;-78
2023/06/02 05:01:16;;;;;;;;;;;;;;;18.85;53.69;99357.16;5114164;28;19916;-78
2023/06/02 05:03:42;;;;;;;;;;;;;;;18.79;54.67;99360.78;5114045;28;19918;-78
2023/06/02 05:06:07;;;;;;;;;;;;;;;18.85;54.16;99363.31;5113964;28;19915;-78
2023/06/02 05:08:32;;;;;;;;;;;;;;;18.93;54.69;99370.16;5113664;28;19995;-78
2023/06/02 05:10:57;;;;;;;;;;;;;;;18.85;55.77;99374.03;5113665;28;19918;-78
2023/06/02 05:13:23;;;;;;;;;;;;;;;18.94;55.11;99382.50;5113626;28;19912;-79
2023/06/02 05:15:48;;;;;;;;;;;;;;;19.04;55.50;99383.50;5129316;28;19912;-77
2023/06/02 05:18:14;;;;;;;;;;;;;;;19.09;55.89;99387.34;5114367;28;20049;-79
2023/06/02 05:20:40;;;;;;;;;;;;;;;19.14;55.67;99390.13;5113728;28;19964;-79
2023/06/02 05:23:05;;;;;;;;;;;;;;;19.20;55.25;99394.50;5114087;28;20002;-78
2023/06/02 05:25:31;;;;;;;;;;;;;;;19.23;56.23;99386.00;5113590;28;19915;-78
2023/06/02 05:27:56;;;;;;;;;;;;;;;19.32;55.62;99393.44;5113478;28;19927;-78
2023/06/02 05:30:21;;;;;;;;;;;;;;;19.43;55.46;99394.47;5113334;28;20336;-78
2023/06/02 05:32:46;;;;;;;;;;;;;;;19.53;55.73;99394.69;5113493;28;20054;-76
2023/06/02 05:35:12;;;;;;;;;;;;;;;19.62;56.10;99398.59;5113709;28;19912;-77
2023/06/02 05:37:37;;;;;;;;;;;;;;;19.69;55.91;99395.78;5123712;28;19991;-77
2023/06/02 05:40:02;;;;;;;;;;;;;;;19.74;55.45;99389.69;5119857;28;19912;-79
2023/06/02 05:42:28;;;;;;;;;;;;;;;19.81;55.47;99388.47;5081140;28;19999;-77
2023/06/02 05:44:53;;;;;;;;;;;;;;;19.92;55.50;99389.47;5082292;28;19917;-78
2023/06/02 05:47:18;;;;;;;;;;;;;;;20.01;55.51;99388.00;5084877;28;19969;-78
2023/06/02 05:49:43;;;;;;;;;;;;;;;20.06;55.64;99393.44;5092125;28;20380;-78
2023/06/02 05:52:09;;;;;;;;;;;;;;;20.16;54.88;99392.81;5090939;28;19916;-78
2023/06/02 05:54:34;;;;;;;;;;;;;;;20.23;54.72;99390.78;5075159;28;20016;-78
2023/06/02 05:56:59;;;;;;;;;;;;;;;20.30;54.78;99394.94;5091048;28;19916;-78
2023/06/02 05:59:24;;;;;;;;;;;;;;;20.37;53.99;99392.09;5091535;28;20301;-77
2023/06/02 06:01:50;;;;;;;;;;;;;;;20.43;53.67;99393.00;5090756;28;20420;-77
2023/06/02 06:04:15;;;;;;;;;;;;;;;20.46;54.07;99397.88;5091296;28;19977;-77
2023/06/02 06:06:40;;;;;;;;;;;;;;;20.54;53.31;99392.09;5097169;28;19920;-78
2023/06/02 06:09:05;;;;;;;;;;;;;;;20.58;52.22;99395.91;5098321;28;20385;-78
2023/06/02 06:11:31;;;;;;;;;;;;;;;20.65;52.32;99399.22;5090716;28;19920;-77
2023/06/02 06:13:56;;;;;;;;;;;;;;;20.72;52.06;99401.72;5106698;28;19926;-77
2023/06/02 06:16:22;;;;;;;;;;;;;;;20.79;51.62;99403.19;5099693;28;19920;-77
2023/06/02 06:18:47;;;;;;;;;;;;;;;20.88;51.76;99411.63;5091549;28;19981;-78
2023/06/02 06:21:13;;;;;;;;;;;;;;;20.93;51.50;99401.78;5070170;28;19955;-77
2023/06/02 06:23:38;;;;;;;;;;;;;;;20.99;51.10;99399.16;5078892;28;20285;-77
2023/06/02 06:26:03;;;;;;;;;;;;;;;21.06;50.75;99405.16;5091883;28;19916;-76
2023/06/02 06:28:28;;;;;;;;;;;;;;;21.12;50.44;99396.09;5099316;28;19919;-77
2023/06/02 06:30:54;;;;;;;;;;;;;;;21.19;50.44;99388.66;5089517;28;19921;-77
2023/06/02 06:33:19;;;;;;;;;;;;;;;21.25;49.60;99395.75;5103364;28;19942;-79
2023/06/02 06:35:44;;;;;;;;;;;;;;;21.32;48.81;99396.38;5085773;28;19972;-78
2023/06/02 06:38:10;;;;;;;;;;;;;;;21.34;48.67;99391.56;5071477;28;19916;-78
2023/06/02 06:40:35;;;;;;;;;;;;;;;21.41;48.46;99386.78;5071630;28;19921;-78
2023/06/02 06:43:00;;;;;;;;;;;;;;;21.51;48.77;99403.03;5074355;28;20021;-77
2023/06/02 06:45:26;;;;;;;;;;;;;;;21.62;48.97;99376.28;5072586;28;20282;-78
2023/06/02 06:47:51;;;;;;;;;;;;;;;21.71;48.17;99375.56;5085978;28;20425;-77
2023/06/02 06:50:16;;;;;;;;;;;;;;;21.82;48.42;99384.53;5087027;28;19978;-78
2023/06/02 06:52:43;;;;;;;;;;;;;;;21.92;48.24;99378.44;5089940;28;19931;-77
2023/06/02 06:55:08;;;;;;;;;;;;;;;22.00;48.25;99384.16;5090908;28;20396;-78
2023/06/02 06:57:33;;;;;;;;;;;;;;;22.05;47.98;99384.22;5090060;28;19955;-77
2023/06/02 06:59:59;;;;;;;;;;;;;;;22.13;48.00;99382.94;5084980;28;19916;-77
2023/06/02 07:02:24;;;;;;;;;;;;;;;22.22;47.69;99376.03;5078334;28;20356;-77
2023/06/02 07:04:51;;;;;;;;;;;;;;;22.24;47.03;99373.06;5075197;28;20237;-78
2023/06/02 07:07:16;;;;;;;;;;;;;;;22.29;47.25;99376.59;5097829;28;19920;-77
2023/06/02 07:09:42;;;;;;;;;;;;;;;22.36;45.71;99374.53;5093962;28;20377;-77
2023/06/02 07:12:07;;;;;;;;;;;;;;;22.42;46.16;99376.19;5084318;28;19916;-76
2023/06/02 07:14:32;;;;;;;;;;;;;;;22.54;46.35;99383.25;5075013;28;19939;-77
2023/06/02 07:16:59;;;;;;;;;;;;;;;22.60;46.22;99376.81;5074483;28;20393;-76
2023/06/02 07:19:24;;;;;;;;;;;;;;;22.67;46.24;99378.22;5089680;28;20377;-76
2023/06/02 07:21:51;;;;;;;;;;;;;;;22.75;45.82;99375.03;5089042;28;19973;-76
2023/06/02 07:24:16;;;;;;;;;;;;;;;22.83;46.67;99366.47;5087797;28;19919;-78
2023/06/02 07:26:42;;;;;;;;;;;;;;;22.90;46.25;99371.63;5093383;28;19912;-78
2023/06/02 07:29:07;;;;;;;;;;;;;;;22.95;46.33;99373.53;5095898;28;19924;-77
2023/06/02 07:31:33;;;;;;;;;;;;;;;22.98;45.91;99367.63;5095277;28;19923;-78
2023/06/02 07:33:58;;;;;;;;;;;;;;;23.01;45.89;99367.91;5086337;28;20003;-78
2023/06/02 07:36:23;;;;;;;;;;;;;;;23.07;46.40;99374.94;5108910;28;19938;-79
2023/06/02 07:38:49;;;;;;;;;;;;;;;23.15;47.28;99362.88;5105942;28;19960;-78
2023/06/02 07:41:15;;;;;;;;;;;;;;;23.21;47.06;99369.88;5095404;28;19973;-76
2023/06/02 07:43:40;;;;;;;;;;;;;;;23.31;47.29;99378.00;5081991;28;19920;-78
2023/06/02 07:46:05;;;;;;;;;;;;;;;23.41;47.23;99377.22;5090920;28;19920;-77
2023/06/02 07:48:30;;;;;;;;;;;;;;;23.53;46.75;99380.47;5075259;28;20416;-77
2023/06/02 07:50:56;;;;;;;;;;;;;;;23.57;46.25;99378.88;5086008;28;19972;-77
2023/06/02 07:53:21;;;;;;;;;;;;;;;23.65;45.81;99377.56;5074876;28;19999;-77
2023/06/02 07:55:46;;;;;;;;;;;;;;;23.70;45.89;99380.25;5084708;28;20388;-77
2023/06/02 07:58:12;;;;;;;;;;;;;;;23.72;46.04;99378.09;5094949;28;20415;-77
2023/06/02 08:00:38;;;;;;;;;;;;;;;23.81;45.75;99376.53;5106440;28;20007;-76
2023/06/02 08:03:03;;;;;;;;;;;;;;;23.91;46.04;99375.72;5094612;28;19912;-77
2023/06/02 08:05:28;;;;;;;;;;;;;;;23.98;45.16;99362.78;5086158;28;19922;-77
2023/06/02 08:07:54;;;;;;;;;;;;;;;24.05;45.25;99366.81;5076230;28;19969;-77
2023/06/02 08:10:19;;;;;;;;;;;;;;;24.16;45.71;99364.09;5088391;28;20403;-75
2023/06/02 08:12:44;;;;;;;;;;;;;;;24.21;46.05;99370.31;5095285;28;19916;-76
2023/06/02 08:15:10;;;;;;;;;;;;;;;24.29;45.70;99360.88;5093095;28;19927;-76
2023/06/02 08:17:35;;;;;;;;;;;;;;;24.36;45.24;99359.53;5094357;28;19958;-77
2023/06/02 08:20:01;;;;;;;;;;;;;;;23.31;44.38;99186.72;5095302;28;20375;-77
2023/06/02 08:22:27;;;;;;;;;;;;;;;24.43;44.37;99355.72;5088858;28;19923;-77
2023/06/02 08:24:55;;;;;;;;;;;;;;;24.51;44.94;99353.28;5093539;28;19919;-77
2023/06/02 08:27:21;;;;;;;;;;;;;;;24.65;44.77;99354.34;5092931;28;19924;-78
2023/06/02 08:29:46;;;;;;;;;;;;;;;24.69;44.56;99357.31;5093919;28;20410;-77
2023/06/02 08:32:12;;;;;;;;;;;;;;;24.77;44.40;99355.94;5092548;28;19919;-77
2023/06/02 08:34:41;;;;;;;;;;;;;;;24.81;42.93;99357.00;5094075;28;19908;-77
2023/06/02 08:37:15;;;;;;;;;;;;;;;24.94;44.43;99354.50;5096616;28;19916;-76
2023/06/02 08:39:40;;;;;;;;;;;;;;;25.05;44.02;99354.50;5091970;28;19917;-76
2023/06/02 08:42:05;;;;;;;;;;;;;;;25.13;42.58;99357.44;5098793;28;19954;-77
2023/06/02 08:44:31;;;;;;;;;;;;;;;25.28;42.38;99354.66;5099046;28;20040;-77
2023/06/02 08:46:57;;;;;;;;;;;;;;;25.39;41.83;99357.31;5094670;28;20023;-78
2023/06/02 08:49:22;;;;;;;;;;;;;;;25.50;43.08;99348.84;5093498;28;19920;-77
2023/06/02 08:51:51;;;;;;;;;;;;;;;25.56;41.98;99350.44;5095218;28;19980;-75
2023/06/02 08:54:17;;;;;;;;;;;;;;;25.69;42.36;99350.91;5093434;28;20416;-77
2023/06/02 08:56:44;;;;;;;;;;;;;;;25.78;42.24;99343.81;5091888;28;19916;-75
2023/06/02 08:59:09;;;;;;;;;;;;;;;25.84;40.24;99345.41;5085572;28;20393;-75
2023/06/02 09:01:34;;;;;;;;;;;;;;;26.01;40.82;99345.81;5093114;28;19923;-78
2023/06/02 09:04:00;;;;;;;;;;;;;;;26.20;40.38;99335.91;5093432;28;20436;-78
2023/06/02 09:06:26;;;;;;;;;;;;;;;26.35;38.04;99334.16;5093248;28;19916;-77
2023/06/02 09:09:01;;;;;;;;;;;;;;;26.48;39.76;99333.47;5092304;28;19923;-77
2023/06/02 09:11:27;;;;;;;;;;;;;;;26.61;38.65;99327.38;5085288;28;19967;-77
2023/06/02 09:13:53;;;;;;;;;;;;;;;26.74;40.08;99323.97;5073175;28;20022;-78
2023/06/02 09:16:20;;;;;;;;;;;;;;;26.91;38.29;99318.09;5071601;28;19917;-75
2023/06/02 09:18:56;;;;;;;;;;;;;;;27.05;38.77;99313.59;5073212;28;19916;-76
2023/06/02 09:21:28;;;;;;;;;;;;;;;27.27;38.79;99310.31;5086319;28;19923;-75
2023/06/02 09:23:55;;;;;;;;;;;;;;;27.35;38.68;99306.94;5093432;28;19916;-78
2023/06/02 09:26:21;;;;;;;;;;;;;;;27.32;37.33;99315.66;5093112;28;19919;-77
2023/06/02 09:29:03;;;;;;;;;;;;;;;27.35;36.88;99315.06;5092741;28;19924;-78
2023/06/02 09:31:46;;;;;;;;;;;;;;;27.37;34.81;99317.47;5090351;28;19927;-75
2023/06/02 09:34:12;;;;;;;;;;;;;;;27.45;33.17;99314.91;5086573;28;19969;-77
2023/06/02 09:36:38;;;;;;;;;;;;;;;27.60;35.68;99315.78;5092809;28;20373;-77
2023/06/02 09:39:04;;;;;;;;;;;;;;;27.77;34.50;99318.81;5094796;28;19923;-78
2023/06/02 09:41:30;;;;;;;;;;;;;;;27.99;30.72;99307.31;5072066;28;19927;-77
2023/06/02 09:43:56;;;;;;;;;;;;;;;28.17;33.02;99307.22;5070911;28;20400;-78
2023/06/02 09:46:22;;;;;;;;;;;;;;;28.31;35.12;99304.59;5074836;28;20069;-77
2023/06/02 09:48:55;;;;;;;;;;;;;;;28.33;31.71;99307.00;5085572;28;20404;-77
2023/06/02 09:51:21;;;;;;;;;;;;;;;28.34;34.86;99298.56;5091837;28;19923;-78
2023/06/02 09:53:47;;;;;;;;;;;;;;;28.30;31.29;99294.03;5082591;28;20367;-75
2023/06/02 09:56:12;;;;;;;;;;;;;;;28.29;31.12;99284.28;5093185;28;19915;-77
2023/06/02 09:58:38;;;;;;;;;;;;;;;28.39;34.67;99286.81;5088320;28;20011;-75
2023/06/02 10:01:04;;;;;;;;;;;;;;;28.40;32.70;99291.13;5091750;28;20013;-77
2023/06/02 10:03:29;;;;;;;;;;;;;;;28.41;32.67;99301.69;5072991;28;19916;-77
2023/06/02 10:06:05;;;;;;;;;;;;;;;28.54;33.20;99291.13;5077299;28;19916;-78
2023/06/02 10:08:36;;;;;;;;;;;;;;;28.56;30.95;99292.44;5087888;28;20122;-76
2023/06/02 10:11:10;;;;;;;;;;;;;;;28.61;33.07;99294.25;5070908;28;19939;-77
2023/06/02 10:13:35;;;;;;;;;;;;;;;28.65;29.57;99289.81;5071001;28;19923;-76
2023/06/02 10:16:08;;;;;;;;;;;;;;;28.70;30.93;99287.78;5094405;28;19912;-77
2023/06/02 10:18:42;;;;;;;;;;;;;;;28.82;31.54;99286.47;5093042;28;19969;-78
2023/06/02 10:21:16;;;;;;;;;;;;;;;28.96;32.59;99285.34;5077072;28;19931;-76
2023/06/02 10:23:46;;;;;;;;;;;;;;;29.10;30.03;99285.34;5080307;28;19920;-76
2023/06/02 10:26:21;;;;;;;;;;;;;;;29.10;33.11;99277.19;5083274;28;20567;-77
2023/06/02 10:28:47;;;;;;;;;;;;;;;29.13;33.23;99262.19;5080729;28;20294;-76
2023/06/02 10:31:13;;;;;;;;;;;;;;;29.33;32.57;99262.50;5081248;28;19916;-76
2023/06/02 10:33:45;;;;;;;;;;;;;;;29.39;31.92;99265.91;5079840;28;20396;-78
2023/06/02 10:36:13;;;;;;;;;;;;;;;29.31;32.78;99261.22;5083576;28;20408;-77
2023/06/02 10:38:38;;;;;;;;;;;;;;;29.19;31.08;99259.03;5089222;28;19968;-77
2023/06/02 10:41:04;;;;;;;;;;;;;;;29.05;31.27;99250.94;5088066;28;20342;-77
2023/06/02 10:43:29;;;;;;;;;;;;;;;28.96;32.43;99250.03;5077978;28;19927;-76
2023/06/02 10:46:14;;;;;;;;;;;;;;;29.06;32.07;99246.28;5077659;28;19916;-75
2023/06/02 10:48:40;;;;;;;;;;;;;;;29.26;32.78;99245.00;5077121;28;20396;-77
2023/06/02 10:51:09;;;;;;;;;;;;;;;29.46;33.03;99238.31;5088680;28;19916;-76
2023/06/02 10:53:53;;;;;;;;;;;;;;;29.62;30.95;99245.78;5075930;28;19916;-77
2023/06/02 10:56:39;;;;;;;;;;;;;;;29.82;32.46;99246.41;5077940;28;19916;-77
2023/06/02 10:59:04;;;;;;;;;;;;;;;29.97;32.70;99243.25;5073628;28;20470;-78
2023/06/02 11:01:46;;;;;;;;;;;;;;;30.05;32.35;99242.53;5074574;28;19920;-77
2023/06/02 11:04:29;;;;;;;;;;;;;;;30.12;31.37;99236.63;5081703;28;19927;-77
2023/06/02 11:07:28;;;;;;;;;;;;;;;30.16;31.91;99246.59;5078993;28;19916;-76
2023/06/02 11:09:58;;;;;;;;;;;;;;;30.44;30.55;99246.34;5078351;28;19924;-77
2023/06/02 11:12:46;;;;;;;;;;;;;;;30.64;29.66;99243.91;5080819;28;19912;-77
2023/06/02 11:15:12;;;;;;;;;;;;;;;30.73;30.81;99238.47;5073705;28;19925;-76
2023/06/02 11:17:37;;;;;;;;;;;;;;;30.69;29.70;99240.22;5078887;28;19924;-77
2023/06/02 11:20:06;;;;;;;;;;;;;;;30.63;28.02;99239.56;5092744;28;19916;-75
2023/06/02 11:22:33;;;;;;;;;;;;;;;30.52;26.99;99232.78;5083565;28;19913;-77
2023/06/02 11:24:59;;;;;;;;;;;;;;;30.47;26.69;99234.81;5079960;28;19996;-78
2023/06/02 11:27:54;;;;;;;;;;;;;;;30.40;30.00;99234.47;5075775;28;19971;-77
2023/06/02 11:30:38;;;;;;;;;;;;;;;30.31;29.88;99229.81;5074081;28;19973;-77
2023/06/02 11:33:04;;;;;;;;;;;;;;;30.34;30.61;99225.66;5079869;28;19920;-77
2023/06/02 11:35:29;;;;;;;;;;;;;;;30.46;29.44;99230.50;5074230;28;19942;-77
2023/06/02 11:38:02;;;;;;;;;;;;;;;30.52;30.83;99212.91;5077608;28;19944;-77
2023/06/02 11:40:28;;;;;;;;;;;;;;;30.58;28.96;99217.09;5072783;28;19916;-76
2023/06/02 11:42:54;;;;;;;;;;;;;;;30.60;30.37;99215.69;5081085;28;19916;-79
2023/06/02 11:45:20;;;;;;;;;;;;;;;30.75;28.43;99210.88;5088412;28;19916;-78
2023/06/02 11:47:47;;;;;;;;;;;;;;;30.76;29.08;99209.75;5090474;28;20313;-75
2023/06/02 11:50:16;;;;;;;;;;;;;;;30.94;29.49;99212.19;5086414;28;20328;-75
2023/06/02 11:52:42;;;;;;;;;;;;;;;31.10;28.21;99209.75;5076817;28;19987;-78
2023/06/02 11:55:07;;;;;;;;;;;;;;;31.29;27.35;99198.56;5078733;28;19963;-77
2023/06/02 11:57:33;;;;;;;;;;;;;;;31.45;28.71;99204.31;5075211;28;19916;-78
2023/06/02 12:00:12;;;;;;;;;;;;;;;31.43;29.58;99204.66;5088177;28;20389;-77
2023/06/02 12:02:43;;;;;;;;;;;;;;;31.45;28.16;99207.03;5090276;28;19986;-77
2023/06/02 12:05:29;;;;;;;;;;;;;;;31.54;28.13;99203.16;5087259;28;19917;-76
2023/06/02 12:07:54;;;;;;;;;;;;;;;31.68;25.73;99205.69;5091151;28;19938;-77
2023/06/02 12:10:20;;;;;;;;;;;;;;;31.65;27.75;99191.91;5078403;28;19920;-76
2023/06/02 12:12:45;;;;;;;;;;;;;;;31.68;29.46;99204.91;5072212;28;19917;-77
2023/06/02 12:15:12;;;;;;;;;;;;;;;31.63;28.41;99197.69;5089369;28;20360;-76
2023/06/02 12:17:41;;;;;;;;;;;;;;;31.66;26.58;99193.50;5078926;28;19964;-77
2023/06/02 12:20:07;;;;;;;;;;;;;;;31.70;27.70;99195.28;5082697;28;19985;-76
2023/06/02 12:22:32;;;;;;;;;;;;;;;31.71;28.75;99196.88;5095854;28;20392;-77
2023/06/02 12:25:09;;;;;;;;;;;;;;;31.78;26.13;99189.00;5088746;28;19924;-76
2023/06/02 12:27:34;;;;;;;;;;;;;;;31.84;26.91;99184.16;5076457;28;19920;-77
2023/06/02 12:30:00;;;;;;;;;;;;;;;31.76;28.41;99182.25;5091960;28;19926;-77
2023/06/02 12:32:26;;;;;;;;;;;;;;;31.82;27.93;99172.75;5093055;28;20373;-76
2023/06/02 12:34:51;;;;;;;;;;;;;;;31.92;28.44;99165.00;5092296;28;20437;-75
2023/06/02 12:37:17;;;;;;;;;;;;;;;31.93;27.45;99165.81;5096473;28;19957;-76
2023/06/02 12:39:43;;;;;;;;;;;;;;;31.96;28.08;99173.38;5076786;28;19927;-75
2023/06/02 12:42:12;;;;;;;;;;;;;;;31.96;28.83;99165.19;5090520;28;20285;-76
2023/06/02 12:44:38;;;;;;;;;;;;;;;31.89;28.58;99167.59;5085539;28;19919;-77
2023/06/02 12:47:04;;;;;;;;;;;;;;;31.89;28.37;99164.88;5088837;28;19923;-78
2023/06/02 12:49:31;;;;;;;;;;;;;;;31.99;28.56;99164.53;5084643;28;19920;-78